createdAt,value
2022-09-16T00:01:52.664Z,17.00
2022-09-16T00:04:19.294Z,17.00
2022-09-16T00:06:45.882Z,17.00
2022-09-16T00:09:12.553Z,17.00
2022-09-16T00:11:39.301Z,17.00
2022-09-16T00:14:06.043Z,17.00
2022-09-16T00:16:32.880Z,17.00
2022-09-16T00:19:00.801Z,16.90
2022-09-16T00:21:28.759Z,16.90
2022-09-16T00:23:56.912Z,16.90
2022-09-16T00:26:23.860Z,16.90
2022-09-16T00:28:50.916Z,16.90
2022-09-16T00:31:18.213Z,16.90
2022-09-16T00:33:44.874Z,17.00
2022-09-16T00:36:12.782Z,16.90
2022-09-16T00:38:39.784Z,16.90
2022-09-16T00:41:07.418Z,16.90
2022-09-16T00:43:57.806Z,16.90
2022-09-16T00:46:46.769Z,16.90
2022-09-16T00:49:30.367Z,16.90
2022-09-16T00:52:01.855Z,16.80
2022-09-16T00:54:30.061Z,16.80
2022-09-16T00:57:00.333Z,16.80
2022-09-16T00:59:31.506Z,16.80
2022-09-16T01:02:02.923Z,16.80
2022-09-16T01:04:34.944Z,16.80
2022-09-16T01:07:02.458Z,16.80
2022-09-16T01:09:30.536Z,16.80
2022-09-16T01:11:57.245Z,16.70
2022-09-16T01:14:45.353Z,16.70
2022-09-16T01:17:24.325Z,16.70
2022-09-16T01:20:01.432Z,16.70
2022-09-16T01:22:51.284Z,16.70
2022-09-16T01:25:46.191Z,16.70
2022-09-16T01:28:30.017Z,16.70
2022-09-16T01:31:08.399Z,16.70
2022-09-16T01:33:46.925Z,16.70
2022-09-16T01:36:31.425Z,16.70
2022-09-16T01:39:07.961Z,16.70
2022-09-16T01:41:47.033Z,16.60
2022-09-16T01:44:39.981Z,16.60
2022-09-16T01:47:35.906Z,16.60
2022-09-16T01:50:17.933Z,16.60
2022-09-16T01:53:10.465Z,16.60
2022-09-16T01:56:01.620Z,16.60
2022-09-16T01:58:50.461Z,16.60
2022-09-16T02:01:31.262Z,16.60
2022-09-16T02:04:03.181Z,16.60
2022-09-16T02:06:31.619Z,16.60
2022-09-16T02:09:08.792Z,16.60
2022-09-16T02:11:38.344Z,16.60
2022-09-16T02:14:19.314Z,16.60
2022-09-16T02:16:58.053Z,16.60
2022-09-16T02:19:30.117Z,16.60
2022-09-16T02:22:00.629Z,16.60
2022-09-16T02:24:29.246Z,16.60
2022-09-16T02:27:00.704Z,16.60
2022-09-16T02:29:32.237Z,16.60
2022-09-16T02:34:50.912Z,16.50
2022-09-16T02:37:35.031Z,16.50
2022-09-16T02:40:07.749Z,16.50
2022-09-16T02:42:34.872Z,16.50
2022-09-16T02:45:02.903Z,16.50
2022-09-16T02:47:52.216Z,16.50
2022-09-16T02:50:41.461Z,16.50
2022-09-16T02:53:36.233Z,16.50
2022-09-16T02:56:15.723Z,16.50
2022-09-16T02:58:42.482Z,16.50
2022-09-16T03:01:12.522Z,16.60
2022-09-16T03:03:39.767Z,16.50
2022-09-16T03:06:06.409Z,16.50
2022-09-16T03:08:34.806Z,16.50
2022-09-16T03:11:12.864Z,16.50
2022-09-16T03:14:18.073Z,16.50
2022-09-16T03:16:59.765Z,16.50
2022-09-16T03:19:35.621Z,16.50
2022-09-16T03:22:30.855Z,16.50
2022-09-16T03:25:06.711Z,16.50
2022-09-16T03:27:42.670Z,16.50
2022-09-16T03:30:10.782Z,16.50
2022-09-16T03:32:48.549Z,16.50
2022-09-16T03:35:30.073Z,16.50
2022-09-16T03:37:59.304Z,16.50
2022-09-16T03:40:29.550Z,16.50
2022-09-16T03:42:57.896Z,16.50
2022-09-16T03:45:25.188Z,16.50
2022-09-16T03:47:53.188Z,16.40
2022-09-16T03:50:21.161Z,16.40
2022-09-16T03:52:47.911Z,16.40
2022-09-16T03:55:16.715Z,16.40
2022-09-16T03:57:43.535Z,16.40
2022-09-16T04:00:11.181Z,16.40
2022-09-16T04:02:40.481Z,16.40
2022-09-16T04:05:08.807Z,16.40
2022-09-16T04:07:36.032Z,16.40
2022-09-16T04:10:03.799Z,16.40
2022-09-16T04:12:30.476Z,16.40
2022-09-16T04:14:57.087Z,16.40
2022-09-16T04:17:24.030Z,16.40
2022-09-16T04:19:51.439Z,16.40
2022-09-16T04:22:18.280Z,16.30
2022-09-16T04:24:44.997Z,16.40
2022-09-16T04:27:11.577Z,16.40
2022-09-16T04:29:38.236Z,16.40
2022-09-16T04:32:04.959Z,16.30
2022-09-16T04:34:32.404Z,16.30
2022-09-16T04:36:59.530Z,16.30
2022-09-16T04:39:26.157Z,16.30
2022-09-16T04:41:53.005Z,16.30
2022-09-16T04:44:19.646Z,16.30
2022-09-16T04:46:46.283Z,16.30
2022-09-16T04:49:13.190Z,16.30
2022-09-16T04:51:39.867Z,16.20
2022-09-16T04:54:06.816Z,16.20
2022-09-16T04:56:33.628Z,16.20
2022-09-16T04:59:02.553Z,16.20
2022-09-16T05:01:31.811Z,16.20
2022-09-16T05:04:02.408Z,16.20
2022-09-16T05:06:32.671Z,16.20
2022-09-16T05:09:00.904Z,16.20
2022-09-16T05:11:31.339Z,16.10
2022-09-16T05:14:02.947Z,16.10
2022-09-16T05:16:30.663Z,16.10
2022-09-16T05:18:59.684Z,16.10
2022-09-16T05:21:27.787Z,16.10
2022-09-16T05:23:55.876Z,16.10
2022-09-16T05:26:25.042Z,16.10
2022-09-16T05:28:52.281Z,16.10
2022-09-16T05:31:20.480Z,16.10
2022-09-16T05:33:54.842Z,16.10
2022-09-16T05:36:22.518Z,16.10
2022-09-16T05:39:11.090Z,16.10
2022-09-16T05:41:36.955Z,16.10
2022-09-16T05:44:04.142Z,16.10
2022-09-16T05:46:30.846Z,16.10
2022-09-16T05:48:57.540Z,16.10
2022-09-16T05:51:26.077Z,16.10
2022-09-16T05:53:54.281Z,16.10
2022-09-16T05:56:26.485Z,16.10
2022-09-16T05:58:54.516Z,16.10
2022-09-16T06:01:29.703Z,16.20
2022-09-16T06:03:56.503Z,16.10
2022-09-16T06:06:28.864Z,16.20
2022-09-16T06:08:58.291Z,16.20
2022-09-16T06:11:26.222Z,16.20
2022-09-16T06:14:01.419Z,16.20
2022-09-16T06:16:32.054Z,16.20
2022-09-16T06:19:00.370Z,16.30
2022-09-16T06:21:27.710Z,16.30
2022-09-16T06:23:54.826Z,16.30
2022-09-16T06:26:24.186Z,16.40
2022-09-16T06:28:51.988Z,16.30
2022-09-16T06:31:21.846Z,16.40
2022-09-16T06:33:50.262Z,16.40
2022-09-16T06:36:19.352Z,16.40
2022-09-16T06:38:46.677Z,16.40
2022-09-16T06:41:14.650Z,16.50
2022-09-16T06:43:41.908Z,16.50
2022-09-16T06:46:18.225Z,16.50
2022-09-16T06:48:47.069Z,16.50
2022-09-16T06:51:16.468Z,16.50
2022-09-16T06:53:43.750Z,16.50
2022-09-16T06:56:13.626Z,16.60
2022-09-16T06:58:42.622Z,16.60
2022-09-16T07:01:20.444Z,16.60
2022-09-16T07:03:50.673Z,16.70
2022-09-16T07:06:19.048Z,16.70
2022-09-16T07:08:46.299Z,16.80
2022-09-16T07:11:14.099Z,16.90
2022-09-16T07:13:41.441Z,17.00
2022-09-16T07:16:13.964Z,17.10
2022-09-16T07:18:42.100Z,17.20
2022-09-16T07:21:15.379Z,17.30
2022-09-16T07:23:43.075Z,17.50
2022-09-16T07:26:11.397Z,17.70
2022-09-16T07:28:39.602Z,18.00
2022-09-16T07:31:12.171Z,18.30
2022-09-16T07:33:41.444Z,18.60
2022-09-16T07:36:09.772Z,19.00
2022-09-16T07:38:36.767Z,19.30
2022-09-16T07:41:08.964Z,19.60
2022-09-16T07:43:35.652Z,19.90
2022-09-16T07:46:02.398Z,20.20
2022-09-16T07:48:34.691Z,20.50
2022-09-16T07:51:07.747Z,20.80
2022-09-16T07:53:35.453Z,21.00
2022-09-16T07:56:08.303Z,21.40
2022-09-16T07:58:35.713Z,21.70
2022-09-16T08:01:04.722Z,22.00
2022-09-16T08:03:36.166Z,22.40
2022-09-16T08:06:09.501Z,22.60
2022-09-16T08:08:36.446Z,22.90
2022-09-16T08:11:03.269Z,23.20
2022-09-16T08:13:31.969Z,23.50
2022-09-16T08:16:04.304Z,23.80
2022-09-16T08:18:31.697Z,24.00
2022-09-16T08:20:59.433Z,24.30
2022-09-16T08:23:26.052Z,24.60
2022-09-16T08:25:59.850Z,24.90
2022-09-16T08:28:35.843Z,25.20
2022-09-16T08:31:12.724Z,25.50
2022-09-16T08:33:40.640Z,25.90
2022-09-16T08:36:14.232Z,26.10
2022-09-16T08:38:42.133Z,26.40
2022-09-16T08:41:42.848Z,26.70
2022-09-16T08:44:52.565Z,27.00
2022-09-16T08:47:26.135Z,27.20
2022-09-16T08:49:54.195Z,27.50
2022-09-16T08:52:37.278Z,27.70
2022-09-16T08:55:18.728Z,27.80
2022-09-16T08:58:06.011Z,27.90
2022-09-16T09:00:34.159Z,28.10
2022-09-16T09:03:27.369Z,28.20
2022-09-16T09:05:56.245Z,28.30
2022-09-16T09:08:39.845Z,28.30
2022-09-16T09:11:30.837Z,28.40
2022-09-16T09:14:19.198Z,28.40
2022-09-16T09:17:06.744Z,28.40
2022-09-16T09:19:53.625Z,28.30
2022-09-16T09:22:57.394Z,28.30
2022-09-16T09:25:48.930Z,28.30
2022-09-16T09:28:38.208Z,28.20
2022-09-16T09:31:41.566Z,28.20
2022-09-16T09:34:10.918Z,28.20
2022-09-16T09:36:40.685Z,28.10
2022-09-16T09:39:30.585Z,28.10
2022-09-16T09:42:24.611Z,28.00
2022-09-16T09:45:13.639Z,27.90
2022-09-16T09:47:49.580Z,27.80
2022-09-16T09:50:24.687Z,27.60
2022-09-16T09:53:23.449Z,27.40
2022-09-16T09:55:59.082Z,27.20
2022-09-16T09:58:43.859Z,27.10
2022-09-16T10:01:11.336Z,27.10
2022-09-16T10:03:40.074Z,27.10
2022-09-16T10:06:07.219Z,27.10
2022-09-16T10:08:48.467Z,27.30
2022-09-16T10:11:21.238Z,27.30
2022-09-16T10:14:06.219Z,27.40
2022-09-16T10:16:37.217Z,27.60
2022-09-16T10:19:24.988Z,27.50
2022-09-16T10:22:07.853Z,27.50
2022-09-16T10:24:37.329Z,27.40
2022-09-16T10:27:35.700Z,27.40
2022-09-16T10:30:08.393Z,27.40
2022-09-16T10:33:01.211Z,27.30
2022-09-16T10:35:29.980Z,27.30
2022-09-16T10:38:01.186Z,27.20
2022-09-16T10:40:28.753Z,27.00
2022-09-16T10:43:03.952Z,26.90
2022-09-16T10:45:35.201Z,26.70
2022-09-16T10:48:11.231Z,26.50
2022-09-16T10:50:38.009Z,26.30
2022-09-16T10:53:37.623Z,26.20
2022-09-16T10:56:30.651Z,25.90
2022-09-16T10:59:10.899Z,25.80
2022-09-16T11:01:48.491Z,25.60
2022-09-16T11:04:40.895Z,25.40
2022-09-16T11:07:29.255Z,25.20
2022-09-16T11:10:05.168Z,25.00
2022-09-16T11:12:56.550Z,24.80
2022-09-16T11:15:59.087Z,24.60
2022-09-16T11:18:40.110Z,24.40
2022-09-16T11:21:20.219Z,24.30
2022-09-16T11:24:05.603Z,24.10
2022-09-16T11:26:44.714Z,23.90
2022-09-16T11:29:27.302Z,23.70
2022-09-16T11:32:00.140Z,23.60
2022-09-16T11:34:46.568Z,23.50
2022-09-16T11:37:24.422Z,23.30
2022-09-16T11:40:28.598Z,23.20
2022-09-16T11:43:32.091Z,23.20
2022-09-16T11:46:04.717Z,23.00
2022-09-16T11:49:10.142Z,22.90
2022-09-16T11:52:12.813Z,22.80
2022-09-16T11:54:46.921Z,22.60
2022-09-16T11:57:21.436Z,22.60
2022-09-16T11:59:57.034Z,22.50
2022-09-16T12:02:54.956Z,22.40
2022-09-16T12:05:29.538Z,22.40
2022-09-16T12:08:27.186Z,22.30
2022-09-16T12:11:02.530Z,22.20
2022-09-16T12:13:44.480Z,22.10
2022-09-16T12:16:19.642Z,22.10
2022-09-16T12:18:53.092Z,22.00
2022-09-16T12:21:28.793Z,21.90
2022-09-16T12:24:12.146Z,21.90
2022-09-16T12:26:55.758Z,21.80
2022-09-16T12:29:40.952Z,21.80
2022-09-16T12:32:17.798Z,21.70
2022-09-16T12:34:55.978Z,21.70
2022-09-16T12:37:46.398Z,21.70
2022-09-16T12:40:26.547Z,21.70
2022-09-16T12:43:18.676Z,21.60
2022-09-16T12:46:12.641Z,21.60
2022-09-16T12:48:53.131Z,21.60
2022-09-16T12:51:37.921Z,21.60
2022-09-16T12:54:26.057Z,21.60
2022-09-16T12:57:07.992Z,21.60
2022-09-16T12:59:52.449Z,21.60
2022-09-16T13:02:22.784Z,21.60
2022-09-16T13:04:54.263Z,21.60
2022-09-16T13:07:26.608Z,21.70
2022-09-16T13:10:06.851Z,21.70
2022-09-16T13:12:41.317Z,21.70
2022-09-16T13:15:29.552Z,21.70
2022-09-16T13:18:07.471Z,21.70
2022-09-16T13:20:40.264Z,21.60
2022-09-16T13:23:33.880Z,21.60
2022-09-16T13:26:08.632Z,21.60
2022-09-16T13:28:44.026Z,21.50
2022-09-16T13:31:17.755Z,21.50
2022-09-16T13:33:59.741Z,21.40
2022-09-16T13:36:26.584Z,21.30
2022-09-16T13:38:55.295Z,21.30
2022-09-16T13:41:37.516Z,21.30
2022-09-16T13:44:39.665Z,21.20
2022-09-16T13:47:09.520Z,21.20
2022-09-16T13:49:56.404Z,21.10
2022-09-16T13:52:31.335Z,21.10
2022-09-16T13:55:10.958Z,21.00
2022-09-16T13:57:53.426Z,21.00
2022-09-16T14:00:37.514Z,20.90
2022-09-16T14:03:09.675Z,20.90
2022-09-16T14:06:01.680Z,21.00
2022-09-16T14:08:54.436Z,20.90
2022-09-16T14:11:40.858Z,20.90
2022-09-16T14:14:36.181Z,20.90
2022-09-16T14:17:04.754Z,20.90
2022-09-16T14:19:37.408Z,20.90
2022-09-16T14:22:17.322Z,20.90
2022-09-16T14:24:45.774Z,20.90
2022-09-16T14:27:30.412Z,20.90
2022-09-16T14:30:02.054Z,21.00
2022-09-16T14:32:37.100Z,20.90
2022-09-16T14:35:15.667Z,20.80
2022-09-16T14:37:46.634Z,20.80
2022-09-16T14:40:16.598Z,20.80
2022-09-16T14:42:50.228Z,20.80
2022-09-16T14:45:17.363Z,20.80
2022-09-16T14:47:51.745Z,20.80
2022-09-16T14:50:34.128Z,20.80
2022-09-16T14:53:03.678Z,20.80
2022-09-16T14:55:37.454Z,20.70
2022-09-16T14:58:04.305Z,20.70
2022-09-16T15:00:42.663Z,20.80
2022-09-16T15:03:43.394Z,20.80
2022-09-16T15:06:28.609Z,20.80
2022-09-16T15:09:06.317Z,20.90
2022-09-16T15:11:47.571Z,20.90
2022-09-16T15:14:15.559Z,20.90
2022-09-16T15:16:54.114Z,21.00
2022-09-16T15:19:25.485Z,21.00
2022-09-16T15:21:52.587Z,21.10
2022-09-16T15:24:28.759Z,21.10
2022-09-16T15:26:56.599Z,21.10
2022-09-16T15:29:23.167Z,21.20
2022-09-16T15:31:50.682Z,21.10
2022-09-16T15:34:23.139Z,21.10
2022-09-16T15:36:58.178Z,21.10
2022-09-16T15:39:32.696Z,21.10
2022-09-16T15:42:12.291Z,21.10
2022-09-16T15:44:53.856Z,21.10
2022-09-16T15:47:35.832Z,21.10
2022-09-16T15:50:13.431Z,21.10
2022-09-16T15:53:04.673Z,21.10
2022-09-16T15:55:52.996Z,21.10
2022-09-16T15:58:41.878Z,21.00
2022-09-16T16:01:39.997Z,21.00
2022-09-16T16:04:09.915Z,20.90
2022-09-16T16:06:55.105Z,20.90
2022-09-16T16:09:29.193Z,20.90
2022-09-16T16:12:17.053Z,20.80
2022-09-16T16:14:44.306Z,20.80
2022-09-16T16:17:13.869Z,20.70
2022-09-16T16:19:46.387Z,20.60
2022-09-16T16:22:14.295Z,20.60
2022-09-16T16:24:41.729Z,20.50
2022-09-16T16:27:10.106Z,20.50
2022-09-16T16:29:38.702Z,20.40
2022-09-16T16:32:14.830Z,20.40
2022-09-16T16:34:43.882Z,20.30
2022-09-16T16:37:28.042Z,20.30
2022-09-16T16:39:59.766Z,20.30
2022-09-16T16:42:28.538Z,20.20
2022-09-16T16:44:56.501Z,20.10
2022-09-16T16:47:23.855Z,20.10
2022-09-16T16:49:51.664Z,20.10
2022-09-16T16:52:18.347Z,20.00
2022-09-16T16:54:45.722Z,20.00
2022-09-16T16:57:12.373Z,20.00
2022-09-16T16:59:38.968Z,19.90
2022-09-16T17:02:05.972Z,19.90
2022-09-16T17:04:32.592Z,19.80
2022-09-16T17:07:24.149Z,19.80
2022-09-16T17:09:45.841Z,19.80
2022-09-16T17:12:12.913Z,19.70
2022-09-16T17:14:39.568Z,19.70
2022-09-16T17:17:06.199Z,19.60
2022-09-16T17:19:32.821Z,19.60
2022-09-16T17:21:59.482Z,19.60
2022-09-16T17:24:26.153Z,19.50
2022-09-16T17:26:52.777Z,19.50
2022-09-16T17:29:19.488Z,19.50
2022-09-16T17:31:46.208Z,19.40
2022-09-16T17:34:15.524Z,19.40
2022-09-16T17:36:44.762Z,19.40
2022-09-16T17:39:20.504Z,19.30
2022-09-16T17:41:48.773Z,19.30
2022-09-16T17:44:16.732Z,19.30
2022-09-16T17:46:44.593Z,19.20
2022-09-16T17:49:21.333Z,19.20
2022-09-16T17:51:48.928Z,19.20
2022-09-16T17:54:15.622Z,19.10
2022-09-16T17:56:43.007Z,19.10
2022-09-16T17:59:10.972Z,19.00
2022-09-16T18:01:38.047Z,19.00
2022-09-16T18:04:04.812Z,18.90
2022-09-16T18:06:43.613Z,18.80
2022-09-16T18:09:11.026Z,18.80
2022-09-16T18:11:38.720Z,18.70
2022-09-16T18:14:07.858Z,18.70
2022-09-16T18:16:35.140Z,18.50
2022-09-16T18:19:02.523Z,18.50
2022-09-16T18:21:30.126Z,18.40
2022-09-16T18:23:59.398Z,18.40
2022-09-16T18:26:26.810Z,18.30
2022-09-16T18:29:11.501Z,18.30
2022-09-16T18:31:43.582Z,18.20
2022-09-16T18:34:10.833Z,18.20
2022-09-16T18:36:38.994Z,18.20
2022-09-16T18:39:07.142Z,18.10
2022-09-16T18:41:40.257Z,18.10
2022-09-16T18:44:24.984Z,18.10
2022-09-16T18:46:55.732Z,18.00
2022-09-16T18:49:23.914Z,18.00
2022-09-16T18:51:52.556Z,18.00
2022-09-16T18:54:27.822Z,18.00
2022-09-16T18:57:00.378Z,18.00
2022-09-16T18:59:29.727Z,17.90
2022-09-16T19:01:59.693Z,17.90
2022-09-16T19:04:30.285Z,17.90
2022-09-16T19:07:05.641Z,17.90
2022-09-16T19:09:32.840Z,17.90
2022-09-16T19:12:02.215Z,17.90
2022-09-16T19:14:30.608Z,17.90
2022-09-16T19:16:57.353Z,17.80
2022-09-16T19:19:24.364Z,17.80
2022-09-16T19:21:51.186Z,17.80
2022-09-16T19:24:22.157Z,17.80
2022-09-16T19:26:52.563Z,17.80
2022-09-16T19:29:20.214Z,17.80
2022-09-16T19:31:51.667Z,17.70
2022-09-16T19:34:18.910Z,17.70
2022-09-16T19:36:45.697Z,17.70
2022-09-16T19:39:13.273Z,17.60
2022-09-16T19:41:41.407Z,17.60
2022-09-16T19:44:12.845Z,17.60
2022-09-16T19:46:42.472Z,17.60
2022-09-16T19:49:14.122Z,17.60
2022-09-16T19:51:40.789Z,17.60
2022-09-16T19:54:07.600Z,17.60
2022-09-16T19:56:34.273Z,17.60
2022-09-16T19:59:01.576Z,17.50
2022-09-16T20:01:31.385Z,17.50
2022-09-16T20:03:58.854Z,17.50
2022-09-16T20:06:28.449Z,17.50
2022-09-16T20:09:00.906Z,17.50
2022-09-16T20:11:33.746Z,17.40
2022-09-16T20:14:03.885Z,17.40
2022-09-16T20:16:35.534Z,17.40
2022-09-16T20:19:05.886Z,17.30
2022-09-16T20:21:35.611Z,17.30
2022-09-16T20:24:07.770Z,17.30
2022-09-16T20:26:35.574Z,17.30
2022-09-16T20:29:03.413Z,17.30
2022-09-16T20:31:32.869Z,17.20
2022-09-16T20:33:59.982Z,17.20
2022-09-16T20:36:30.337Z,17.20
2022-09-16T20:38:59.526Z,17.20
2022-09-16T20:41:28.512Z,17.20
2022-09-16T20:43:55.960Z,17.20
2022-09-16T20:46:25.232Z,17.20
2022-09-16T20:48:54.379Z,17.10
2022-09-16T20:51:23.202Z,17.10
2022-09-16T20:54:00.186Z,17.10
2022-09-16T20:56:37.486Z,17.10
2022-09-16T20:59:07.365Z,17.00
2022-09-16T21:01:34.407Z,17.00
2022-09-16T21:04:06.378Z,17.00
2022-09-16T21:06:34.776Z,17.00
2022-09-16T21:09:04.206Z,17.00
2022-09-16T21:11:31.913Z,16.90
2022-09-16T21:14:06.289Z,16.90
2022-09-16T21:16:34.011Z,16.90
2022-09-16T21:19:03.482Z,16.80
2022-09-16T21:21:30.602Z,16.80
2022-09-16T21:23:58.992Z,16.80
2022-09-16T21:26:28.600Z,16.70
2022-09-16T21:28:56.943Z,16.70
2022-09-16T21:31:25.122Z,16.70
2022-09-16T21:33:52.448Z,16.60
2022-09-16T21:36:20.599Z,16.60
2022-09-16T21:38:48.060Z,16.60
2022-09-16T21:41:17.228Z,16.50
2022-09-16T21:43:47.987Z,16.50
2022-09-16T21:46:17.476Z,16.50
2022-09-16T21:48:44.078Z,16.50
2022-09-16T21:51:13.382Z,16.40
2022-09-16T21:53:43.726Z,16.40
2022-09-16T21:56:13.287Z,16.40
2022-09-16T21:58:40.673Z,16.40
2022-09-16T22:01:11.040Z,16.30
2022-09-16T22:03:39.585Z,16.30
2022-09-16T22:06:07.362Z,16.30
2022-09-16T22:08:34.848Z,16.30
2022-09-16T22:11:07.201Z,16.20
2022-09-16T22:13:34.664Z,16.20
2022-09-16T22:16:01.981Z,16.20
2022-09-16T22:18:30.488Z,16.20
2022-09-16T22:21:03.932Z,16.10
2022-09-16T22:23:30.587Z,16.10
2022-09-16T22:25:57.240Z,16.10
2022-09-16T22:28:23.895Z,16.10
2022-09-16T22:30:50.510Z,16.10
2022-09-16T22:33:17.106Z,16.10
2022-09-16T22:35:43.723Z,16.00
2022-09-16T22:38:10.338Z,16.00
2022-09-16T22:40:37.070Z,16.00
2022-09-16T22:43:03.774Z,16.00
2022-09-16T22:45:30.859Z,16.00
2022-09-16T22:47:57.450Z,15.90
2022-09-16T22:50:24.311Z,15.90
2022-09-16T22:52:50.914Z,15.90
2022-09-16T22:55:17.535Z,15.90
2022-09-16T22:57:44.130Z,15.90
2022-09-16T23:00:11.322Z,15.90
2022-09-16T23:02:37.985Z,15.90
2022-09-16T23:05:05.158Z,15.90
2022-09-16T23:07:32.214Z,15.80
2022-09-16T23:09:58.827Z,15.80
2022-09-16T23:12:25.406Z,15.80
2022-09-16T23:14:52.059Z,15.80
2022-09-16T23:17:18.669Z,15.80
2022-09-16T23:19:45.276Z,15.80
2022-09-16T23:22:11.924Z,15.80
2022-09-16T23:24:38.532Z,15.80
2022-09-16T23:27:05.730Z,15.70
2022-09-16T23:29:32.336Z,15.70
2022-09-16T23:32:02.482Z,15.70
2022-09-16T23:34:29.142Z,15.70
2022-09-16T23:36:55.754Z,15.70
2022-09-16T23:39:22.608Z,15.70
2022-09-16T23:41:50.428Z,15.70
2022-09-16T23:44:17.456Z,15.70
2022-09-16T23:46:44.524Z,15.70
2022-09-16T23:49:12.039Z,15.60
2022-09-16T23:51:39.077Z,15.60
2022-09-16T23:54:05.919Z,15.60
2022-09-16T23:56:32.594Z,15.60
2022-09-16T23:59:00.573Z,15.60
